Time;durP1;ratioP1;P1;durP2;ratioP2;P2;SDS_P1;SDS_P2;PMS_P1;PMS_P2;Temp;Humidity;BMP_temperature;BMP_pressure;BME280_temperature;BME280_humidity;BME280_pressure;Samples;Min_cycle;Max_cycle;Signal;HPM_P1;HPM_P2
2021/12/18 00:00:05;;;;;;;;;;;;;;;7.47;100.00;104078.53;5096015;28;19939;-35
2021/12/18 00:02:30;;;;;;;;;;;;;;;7.48;100.00;104075.69;5095965;28;19923;-35
2021/12/18 00:04:55;;;;;;;;;;;;;;;7.51;100.00;104077.25;5095807;28;19912;-35
2021/12/18 00:07:20;;;;;;;;;;;;;;;7.52;100.00;104072.75;5095801;28;19912;-35
2021/12/18 00:09:48;;;;;;;;;;;;;;;7.52;100.00;104073.59;5096076;28;20306;-35
2021/12/18 00:12:13;;;;;;;;;;;;;;;7.51;100.00;104069.16;5095647;28;19912;-35
2021/12/18 00:14:38;;;;;;;;;;;;;;;7.52;100.00;104072.75;5094919;28;20344;-35
2021/12/18 00:17:03;;;;;;;;;;;;;;;7.49;100.00;104072.00;5095356;28;19916;-34
2021/12/18 00:19:29;;;;;;;;;;;;;;;7.51;100.00;104074.56;5095846;28;19912;-34
2021/12/18 00:21:54;;;;;;;;;;;;;;;7.52;100.00;104070.06;5095492;28;19916;-34
2021/12/18 00:24:20;;;;;;;;;;;;;;;7.49;100.00;104068.47;5095927;28;19946;-34
2021/12/18 00:26:45;;;;;;;;;;;;;;;7.50;100.00;104062.09;5095640;28;20064;-35
2021/12/18 00:29:10;;;;;;;;;;;;;;;7.50;100.00;104059.41;5095450;28;20280;-35
2021/12/18 00:31:36;;;;;;;;;;;;;;;7.49;100.00;104055.84;5095240;28;20007;-35
2021/12/18 00:34:01;;;;;;;;;;;;;;;7.45;100.00;104058.94;5094961;28;20002;-35
2021/12/18 00:36:26;;;;;;;;;;;;;;;7.47;100.00;104055.13;5095226;28;19954;-35
2021/12/18 00:38:51;;;;;;;;;;;;;;;7.42;100.00;104049.31;5095234;28;20007;-36
2021/12/18 00:41:35;;;;;;;;;;;;;;;7.38;100.00;104057.78;5094873;28;20006;-35
2021/12/18 00:44:01;;;;;;;;;;;;;;;7.37;100.00;104051.53;5095222;28;19935;-35
2021/12/18 00:46:27;;;;;;;;;;;;;;;7.37;100.00;104053.34;5094971;28;20276;-35
2021/12/18 00:48:53;;;;;;;;;;;;;;;7.32;100.00;104048.38;5095174;28;19912;-35
2021/12/18 00:51:18;;;;;;;;;;;;;;;7.34;100.00;104042.84;5095102;28;19912;-35
2021/12/18 00:53:43;;;;;;;;;;;;;;;7.33;100.00;104033.94;5095000;28;19915;-35
2021/12/18 00:56:08;;;;;;;;;;;;;;;7.34;100.00;104042.84;5094808;28;19974;-35
2021/12/18 00:58:34;;;;;;;;;;;;;;;7.34;100.00;104040.16;5095616;28;19916;-35
2021/12/18 01:00:59;;;;;;;;;;;;;;;7.30;100.00;104028.81;5094891;28;19912;-35
2021/12/18 01:03:24;;;;;;;;;;;;;;;7.33;100.00;104033.09;5095067;28;19920;-35
2021/12/18 01:05:49;;;;;;;;;;;;;;;7.34;100.00;104032.94;5094584;28;19935;-35
2021/12/18 01:08:15;;;;;;;;;;;;;;;7.35;100.00;104028.41;5094631;28;19966;-35
2021/12/18 01:13:16;;;;;;;;;;;;;;;7.32;100.00;104024.16;5094623;28;19912;-34
2021/12/18 01:15:48;;;;;;;;;;;;;;;7.26;100.00;104021.97;5095030;28;19966;-34
2021/12/18 01:23:41;;;;;;;;;;;;;;;7.33;100.00;104020.47;5094582;28;19973;-35
2021/12/18 01:26:06;;;;;;;;;;;;;;;7.35;100.00;104031.94;5094264;28;19912;-35
2021/12/18 01:28:32;;;;;;;;;;;;;;;7.36;100.00;104022.88;5094305;28;19994;-34
2021/12/18 01:30:57;;;;;;;;;;;;;;;7.40;100.00;104026.16;5094461;28;19947;-34
2021/12/18 01:33:23;;;;;;;;;;;;;;;7.40;100.00;104027.03;5093886;28;20007;-35
2021/12/18 01:35:48;;;;;;;;;;;;;;;7.40;100.00;104028.88;5094391;28;19912;-35
2021/12/18 01:38:14;;;;;;;;;;;;;;;7.41;100.00;104027.88;5094030;28;19920;-35
2021/12/18 01:40:39;;;;;;;;;;;;;;;7.41;100.00;104033.25;5094827;28;19912;-35
2021/12/18 01:53:57;;;;;;;;;;;;;;;7.37;100.00;104046.16;4992519;28;19914;-35
2021/12/18 01:56:23;;;;;;;;;;;;;;;7.38;100.00;104055.94;4992446;28;19913;-35
2021/12/18 01:58:49;;;;;;;;;;;;;;;7.38;100.00;104047.84;4992491;28;19914;-35
2021/12/18 02:01:15;;;;;;;;;;;;;;;7.37;100.00;104056.91;4991965;28;20029;-35
2021/12/18 02:03:41;;;;;;;;;;;;;;;7.35;100.00;104056.19;4991714;28;19917;-35
2021/12/18 02:06:07;;;;;;;;;;;;;;;7.32;100.00;104048.38;4991984;28;19992;-35
2021/12/18 02:08:34;;;;;;;;;;;;;;;7.34;100.00;104050.94;4991900;28;19922;-35
2021/12/18 02:11:14;;;;;;;;;;;;;;;7.34;100.00;104053.63;4991967;28;19913;-35
2021/12/18 02:21:52;;;;;;;;;;;;;;;7.27;100.00;104050.63;4992020;28;20309;-35
2021/12/18 02:24:20;;;;;;;;;;;;;;;7.25;100.00;104049.88;4991767;28;19914;-34
2021/12/18 02:26:45;;;;;;;;;;;;;;;7.23;100.00;104049.16;4991592;28;20362;-35
2021/12/18 02:29:14;;;;;;;;;;;;;;;7.22;100.00;104042.06;4991956;28;19953;-35
2021/12/18 02:31:39;;;;;;;;;;;;;;;7.24;100.00;104048.19;5072750;28;19916;-35
2021/12/18 02:34:10;;;;;;;;;;;;;;;7.23;100.00;104039.25;5093405;28;20024;-35
2021/12/18 02:36:42;;;;;;;;;;;;;;;7.17;100.00;104026.31;5093927;28;20262;-35
2021/12/18 02:42:09;;;;;;;;;;;;;;;7.20;100.00;104035.97;5035371;28;20039;-35
2021/12/18 02:44:39;;;;;;;;;;;;;;;7.17;100.00;104033.50;5035277;28;20012;-35
2021/12/18 02:47:05;;;;;;;;;;;;;;;7.19;100.00;104028.88;5035509;28;19917;-35
2021/12/18 02:49:30;;;;;;;;;;;;;;;7.20;100.00;104023.34;5035165;28;19913;-35
2021/12/18 02:51:55;;;;;;;;;;;;;;;7.16;100.00;104015.66;5034632;28;20352;-35
2021/12/18 02:54:20;;;;;;;;;;;;;;;7.14;100.00;104010.44;5034897;28;20003;-35
2021/12/18 02:56:46;;;;;;;;;;;;;;;7.14;100.00;104007.72;5034613;28;19920;-35
2021/12/18 02:59:11;;;;;;;;;;;;;;;7.17;100.00;104009.28;5035017;28;19913;-35
2021/12/18 03:01:38;;;;;;;;;;;;;;;7.18;100.00;104002.94;5034573;28;19913;-35
2021/12/18 03:04:13;;;;;;;;;;;;;;;7.13;100.00;104002.50;5017946;28;19917;-35
2021/12/18 03:06:43;;;;;;;;;;;;;;;7.13;100.00;104007.88;5035018;28;19922;-35
2021/12/18 03:23:06;;;;;;;;;;;;;;;7.07;100.00;104003.84;5077196;28;20402;-35
2021/12/18 03:25:27;;;;;;;;;;;;;;;7.05;100.00;104003.13;5075898;28;19912;-35
2021/12/18 03:27:52;;;;;;;;;;;;;;;7.03;100.00;103998.84;5076896;28;20356;-35
2021/12/18 03:30:18;;;;;;;;;;;;;;;7.05;100.00;104004.97;5076683;28;19966;-35
2021/12/18 03:32:44;;;;;;;;;;;;;;;7.04;100.00;104006.81;5076383;28;19916;-35
2021/12/18 03:35:10;;;;;;;;;;;;;;;7.03;100.00;104005.13;5076105;28;19924;-35
2021/12/18 03:37:36;;;;;;;;;;;;;;;7.03;100.00;104001.53;5076544;28;19919;-35
2021/12/18 03:40:05;;;;;;;;;;;;;;;7.01;100.00;104000.84;5076529;28;19912;-35
2021/12/18 03:42:31;;;;;;;;;;;;;;;6.97;100.00;104006.47;5076174;28;19928;-35
2021/12/18 03:44:56;;;;;;;;;;;;;;;6.96;100.00;104012.84;5076376;28;19919;-35
2021/12/18 03:47:21;;;;;;;;;;;;;;;6.90;100.00;104005.28;5075801;28;19920;-35
2021/12/18 03:49:46;;;;;;;;;;;;;;;6.88;100.00;104007.28;5075428;28;19912;-35
2021/12/18 03:52:12;;;;;;;;;;;;;;;6.91;100.00;104004.31;5076429;28;19912;-35
2021/12/18 03:54:37;;;;;;;;;;;;;;;6.90;100.00;104005.28;5076047;28;19912;-35
2021/12/18 03:57:02;;;;;;;;;;;;;;;6.88;100.00;104014.47;5076477;28;19919;-35
2021/12/18 03:59:28;;;;;;;;;;;;;;;6.90;100.00;104007.97;5076392;28;19919;-35
2021/12/18 04:01:53;;;;;;;;;;;;;;;6.95;100.00;104003.06;5076098;28;19934;-35
2021/12/18 04:04:18;;;;;;;;;;;;;;;6.99;100.00;104003.66;5091240;28;19916;-35
2021/12/18 04:06:44;;;;;;;;;;;;;;;6.96;100.00;104004.75;5094858;28;19916;-35
2021/12/18 04:09:12;;;;;;;;;;;;;;;6.96;100.00;104002.06;5094838;28;19912;-35
2021/12/18 04:11:38;;;;;;;;;;;;;;;7.01;100.00;104006.22;5095578;28;19912;-35
2021/12/18 04:14:04;;;;;;;;;;;;;;;7.00;100.00;104008.06;5095010;28;20082;-35
2021/12/18 04:16:29;;;;;;;;;;;;;;;7.01;100.00;104007.06;5094650;28;20296;-35
2021/12/18 04:18:54;;;;;;;;;;;;;;;7.03;100.00;103999.72;5094951;28;19912;-35
2021/12/18 04:21:20;;;;;;;;;;;;;;;7.08;100.00;104004.72;5094850;28;19964;-35
2021/12/18 04:23:45;;;;;;;;;;;;;;;7.08;100.00;104004.72;5094801;28;19919;-35
2021/12/18 04:26:10;;;;;;;;;;;;;;;7.06;100.00;104004.84;5094681;28;20264;-35
2021/12/18 04:28:35;;;;;;;;;;;;;;;7.03;100.00;103998.84;5094281;28;20383;-35
2021/12/18 04:31:01;;;;;;;;;;;;;;;7.03;100.00;104005.13;5094858;28;20256;-35
2021/12/18 04:33:26;;;;;;;;;;;;;;;7.08;100.00;104007.41;5094455;28;19916;-35
2021/12/18 04:35:53;;;;;;;;;;;;;;;7.08;100.00;104010.97;5095070;28;19912;-36
2021/12/18 04:38:18;;;;;;;;;;;;;;;7.03;100.00;104007.81;5094619;28;19919;-35
2021/12/18 04:40:44;;;;;;;;;;;;;;;7.04;100.00;104011.34;5094778;28;20374;-36
2021/12/18 04:43:09;;;;;;;;;;;;;;;7.07;100.00;104011.91;5094447;28;19912;-36
2021/12/18 04:45:34;;;;;;;;;;;;;;;7.10;100.00;104010.81;5094173;28;20366;-36
2021/12/18 04:47:59;;;;;;;;;;;;;;;7.14;100.00;104012.25;5094658;28;19911;-36
2021/12/18 04:50:25;;;;;;;;;;;;;;;7.08;100.00;104020.88;5094376;28;20301;-36
2021/12/18 04:52:50;;;;;;;;;;;;;;;7.08;100.00;104016.34;5094107;28;19919;-35
2021/12/18 04:55:16;;;;;;;;;;;;;;;7.10;100.00;104025.13;5094159;28;20410;-36
2021/12/18 04:57:41;;;;;;;;;;;;;;;7.10;100.00;104016.19;5075841;28;20352;-36
2021/12/18 05:00:08;;;;;;;;;;;;;;;7.09;100.00;104036.03;5093868;28;20016;-35
2021/12/18 05:02:40;;;;;;;;;;;;;;;7.08;100.00;104034.31;5055417;28;1088526;-36
2021/12/18 05:05:06;;;;;;;;;;;;;;;7.05;100.00;104034.56;5095337;28;19920;-36
2021/12/18 05:07:31;;;;;;;;;;;;;;;7.06;100.00;104036.28;5076222;28;19996;-36
2021/12/18 05:09:57;;;;;;;;;;;;;;;7.05;100.00;104024.66;5094912;28;19951;-36
2021/12/18 05:12:22;;;;;;;;;;;;;;;7.04;100.00;104027.50;5094671;28;20378;-36
2021/12/18 05:14:47;;;;;;;;;;;;;;;7.06;100.00;104020.13;5095098;28;19912;-36
2021/12/18 05:17:12;;;;;;;;;;;;;;;7.06;100.00;104026.34;5094539;28;19962;-35
2021/12/18 05:19:38;;;;;;;;;;;;;;;7.05;100.00;104023.81;5094970;28;19945;-36
2021/12/18 05:22:03;;;;;;;;;;;;;;;7.00;100.00;104017.97;5094356;28;19916;-36
2021/12/18 05:24:29;;;;;;;;;;;;;;;6.95;100.00;104024.59;5094530;28;20002;-36
2021/12/18 05:26:54;;;;;;;;;;;;;;;6.95;100.00;104021.91;5094848;28;20326;-36
2021/12/18 05:29:19;;;;;;;;;;;;;;;6.99;100.00;104024.34;5094269;28;20009;-34
2021/12/18 05:31:45;;;;;;;;;;;;;;;6.94;100.00;104028.25;5095029;28;19912;-36
2021/12/18 05:34:11;;;;;;;;;;;;;;;6.93;100.00;104029.25;5094253;28;19912;-34
2021/12/18 05:37:01;;;;;;;;;;;;;;;6.95;100.00;104029.97;5093809;28;20356;-34
2021/12/18 05:39:22;;;;;;;;;;;;;;;6.97;100.00;104028.00;5093934;28;20411;-36
2021/12/18 05:41:50;;;;;;;;;;;;;;;6.97;100.00;104033.38;5094146;28;19919;-35
2021/12/18 05:44:15;;;;;;;;;;;;;;;6.99;100.00;104030.56;5093942;28;19912;-35
2021/12/18 05:46:41;;;;;;;;;;;;;;;6.97;100.00;104033.38;5094012;28;19912;-35
2021/12/18 05:49:06;;;;;;;;;;;;;;;7.00;100.00;104031.41;5093724;28;19978;-35
2021/12/18 05:51:32;;;;;;;;;;;;;;;6.99;100.00;104027.03;5093978;28;19919;-35
2021/12/18 05:53:57;;;;;;;;;;;;;;;7.00;100.00;104020.66;5093699;28;19912;-35
2021/12/18 05:56:22;;;;;;;;;;;;;;;7.01;100.00;104028.59;5094630;28;20006;-35
2021/12/18 05:58:47;;;;;;;;;;;;;;;7.06;100.00;104017.44;5093841;28;20275;-35
2021/12/18 06:01:13;;;;;;;;;;;;;;;7.09;100.00;104026.13;5094220;28;20322;-35
2021/12/18 06:03:39;;;;;;;;;;;;;;;7.11;100.00;104024.13;5093943;28;19924;-35
2021/12/18 06:06:04;;;;;;;;;;;;;;;7.10;100.00;104019.75;5093868;28;19985;-35
2021/12/18 06:08:32;;;;;;;;;;;;;;;7.11;100.00;104017.91;5094525;28;19912;-34
2021/12/18 06:11:04;;;;;;;;;;;;;;;7.08;100.00;104019.03;5093073;28;19951;-34
2021/12/18 06:13:29;;;;;;;;;;;;;;;7.08;100.00;104029.78;5093932;28;19919;-35
2021/12/18 06:15:55;;;;;;;;;;;;;;;7.07;100.00;104011.91;5093314;28;19912;-36
2021/12/18 06:18:20;;;;;;;;;;;;;;;7.11;100.00;104015.22;5093590;28;19959;-35
2021/12/18 06:20:45;;;;;;;;;;;;;;;7.11;100.00;104017.91;5093294;28;19912;-35
2021/12/18 06:23:10;;;;;;;;;;;;;;;7.14;100.00;104013.13;5093554;28;19912;-39
2021/12/18 06:25:35;;;;;;;;;;;;;;;7.16;100.00;104007.59;5075410;28;19919;-35
2021/12/18 06:28:01;;;;;;;;;;;;;;;7.19;100.00;104012.72;5093257;28;19912;-36
2021/12/18 06:30:27;;;;;;;;;;;;;;;7.20;100.00;104007.19;5093488;28;19912;-35
2021/12/18 06:32:52;;;;;;;;;;;;;;;7.24;100.00;104015.88;5093169;28;19912;-35
2021/12/18 06:35:17;;;;;;;;;;;;;;;7.24;100.00;104010.50;5093154;28;19955;-34
2021/12/18 06:37:42;;;;;;;;;;;;;;;7.24;100.00;104010.50;5093398;28;19916;-34
2021/12/18 06:40:08;;;;;;;;;;;;;;;7.25;100.00;104017.56;5093637;28;19912;-35
2021/12/18 06:42:34;;;;;;;;;;;;;;;7.25;100.00;104014.88;5093019;28;20415;-35
2021/12/18 06:44:59;;;;;;;;;;;;;;;7.27;100.00;104012.03;5094096;28;19923;-35
2021/12/18 06:47:24;;;;;;;;;;;;;;;7.31;100.00;104016.19;5093437;28;19999;-35
2021/12/18 06:49:49;;;;;;;;;;;;;;;7.33;100.00;104017.78;5093410;28;19912;-35
2021/12/18 06:52:15;;;;;;;;;;;;;;;7.34;100.00;104003.31;5093695;28;19965;-35
2021/12/18 06:54:40;;;;;;;;;;;;;;;7.34;100.00;104006.03;5093808;28;19938;-35
2021/12/18 06:57:05;;;;;;;;;;;;;;;7.33;100.00;104012.41;5093223;28;19912;-35
2021/12/18 06:59:30;;;;;;;;;;;;;;;7.33;100.00;104015.09;5093511;28;19912;-35
2021/12/18 07:01:56;;;;;;;;;;;;;;;7.35;100.00;104009.56;5094252;28;19966;-35
2021/12/18 07:04:23;;;;;;;;;;;;;;;7.36;100.00;104012.09;5093529;28;20374;-35
2021/12/18 07:06:48;;;;;;;;;;;;;;;7.38;100.00;104009.31;5093046;28;19954;-36
2021/12/18 07:09:13;;;;;;;;;;;;;;;7.37;100.00;104011.16;5092754;28;19954;-35
2021/12/18 07:11:38;;;;;;;;;;;;;;;7.39;100.00;104011.84;5092766;28;19912;-36
2021/12/18 07:14:04;;;;;;;;;;;;;;;7.37;100.00;104010.25;5092779;28;19920;-35
2021/12/18 07:16:29;;;;;;;;;;;;;;;7.33;100.00;104015.09;5075409;28;19912;-35
2021/12/18 07:18:54;;;;;;;;;;;;;;;7.27;100.00;104012.94;5092730;28;20383;-35
2021/12/18 07:21:19;;;;;;;;;;;;;;;7.25;100.00;104014.88;5093161;28;19912;-36
2021/12/18 07:23:45;;;;;;;;;;;;;;;7.26;100.00;104016.59;5095287;28;19912;-35
2021/12/18 07:26:12;;;;;;;;;;;;;;;7.23;100.00;104014.19;5096394;28;19934;-35
2021/12/18 07:28:37;;;;;;;;;;;;;;;7.19;100.00;104013.56;5097068;28;19912;-35
2021/12/18 07:31:02;;;;;;;;;;;;;;;7.17;100.00;104015.56;5077336;28;20260;-35
2021/12/18 07:33:27;;;;;;;;;;;;;;;7.19;100.00;104018.09;5096743;28;20352;-35
2021/12/18 07:35:53;;;;;;;;;;;;;;;7.21;100.00;104016.97;5096838;28;20067;-36
2021/12/18 07:38:18;;;;;;;;;;;;;;;7.21;100.00;104018.81;5096330;28;20377;-36
2021/12/18 07:40:43;;;;;;;;;;;;;;;7.19;100.00;104021.66;5096258;28;20308;-35
2021/12/18 07:43:08;;;;;;;;;;;;;;;7.21;100.00;104024.19;5096819;28;20040;-35
2021/12/18 07:45:34;;;;;;;;;;;;;;;7.21;100.00;104024.19;5096414;28;19916;-36
2021/12/18 07:48:01;;;;;;;;;;;;;;;7.21;100.00;104024.19;5096581;28;19916;-36
2021/12/18 07:50:26;;;;;;;;;;;;;;;7.23;100.00;104031.19;5096468;28;19912;-36
2021/12/18 07:52:51;;;;;;;;;;;;;;;7.25;100.00;104035.56;5096149;28;19931;-37
2021/12/18 07:55:17;;;;;;;;;;;;;;;7.17;100.00;104042.47;5096206;28;19912;-36
2021/12/18 07:57:42;;;;;;;;;;;;;;;7.16;100.00;104034.50;5095796;28;20376;-35
2021/12/18 08:00:09;;;;;;;;;;;;;;;7.18;100.00;104029.88;5097081;28;19919;-36
2021/12/18 08:02:34;;;;;;;;;;;;;;;7.17;100.00;104036.22;5095614;28;19923;-35
2021/12/18 08:04:59;;;;;;;;;;;;;;;7.15;100.00;104035.50;5096140;28;19912;-36
2021/12/18 08:07:25;;;;;;;;;;;;;;;7.13;100.00;104026.72;5096365;28;20308;-35
2021/12/18 08:09:50;;;;;;;;;;;;;;;7.11;100.00;104028.66;5096273;28;19987;-35
2021/12/18 08:12:15;;;;;;;;;;;;;;;7.05;100.00;104023.81;5095683;28;20318;-36
2021/12/18 08:14:40;;;;;;;;;;;;;;;7.06;100.00;104023.66;5095717;28;19960;-35
2021/12/18 08:17:06;;;;;;;;;;;;;;;7.07;100.00;104027.22;5095325;28;19919;-36
2021/12/18 08:19:31;;;;;;;;;;;;;;;7.08;100.00;104028.94;5095852;28;20364;-35
2021/12/18 08:21:56;;;;;;;;;;;;;;;7.09;100.00;104031.50;5095273;28;19912;-35
2021/12/18 08:24:21;;;;;;;;;;;;;;;7.05;100.00;104021.97;5095444;28;19912;-35
2021/12/18 08:26:47;;;;;;;;;;;;;;;7.02;100.00;104021.38;5095118;28;19919;-35
2021/12/18 08:29:12;;;;;;;;;;;;;;;7.02;100.00;104029.44;5095740;28;20002;-35
2021/12/18 08:31:38;;;;;;;;;;;;;;;6.98;100.00;104023.50;5095810;28;19912;-35
2021/12/18 08:34:03;;;;;;;;;;;;;;;6.93;100.00;104025.72;5095063;28;20334;-35
2021/12/18 08:36:28;;;;;;;;;;;;;;;6.95;100.00;104027.28;5095227;28;19912;-36
2021/12/18 08:38:53;;;;;;;;;;;;;;;6.98;100.00;104026.19;5095163;28;19998;-36
2021/12/18 08:41:20;;;;;;;;;;;;;;;6.99;100.00;104024.34;5095546;28;19918;-35
2021/12/18 08:43:45;;;;;;;;;;;;;;;6.97;100.00;104022.59;5095410;28;19919;-35
2021/12/18 08:46:10;;;;;;;;;;;;;;;6.96;100.00;104020.91;5095020;28;19912;-35
2021/12/18 08:48:36;;;;;;;;;;;;;;;6.94;100.00;104028.25;5095516;28;20420;-35
2021/12/18 08:51:01;;;;;;;;;;;;;;;6.91;100.00;104031.19;5094679;28;19912;-35
2021/12/18 08:53:26;;;;;;;;;;;;;;;6.91;100.00;104027.66;5095049;28;20261;-35
2021/12/18 08:55:52;;;;;;;;;;;;;;;6.93;100.00;104031.94;5095247;28;19938;-36
2021/12/18 08:58:17;;;;;;;;;;;;;;;6.93;100.00;104037.31;5095335;28;20350;-36
2021/12/18 09:00:42;;;;;;;;;;;;;;;6.95;100.00;104032.66;5094531;28;19916;-36
2021/12/18 09:03:07;;;;;;;;;;;;;;;6.98;100.00;104026.19;5094496;28;19916;-36
2021/12/18 09:05:34;;;;;;;;;;;;;;;7.04;100.00;104030.19;5094851;28;19912;-36
2021/12/18 09:07:59;;;;;;;;;;;;;;;7.04;100.00;104028.34;5094293;28;19939;-35
2021/12/18 09:10:25;;;;;;;;;;;;;;;7.08;100.00;104024.41;5094914;28;19912;-35
2021/12/18 09:12:51;;;;;;;;;;;;;;;7.12;100.00;104025.84;5094552;28;19918;-35
2021/12/18 09:15:17;;;;;;;;;;;;;;;7.15;100.00;104030.97;5095179;28;19912;-35
2021/12/18 09:17:42;;;;;;;;;;;;;;;7.16;100.00;104034.50;5094793;28;19916;-35
2021/12/18 09:20:08;;;;;;;;;;;;;;;7.19;100.00;104026.19;5094703;28;19923;-35
2021/12/18 09:22:33;;;;;;;;;;;;;;;7.18;100.00;104032.56;5094011;28;19966;-36
2021/12/18 09:24:59;;;;;;;;;;;;;;;7.20;100.00;104027.88;5094255;28;19973;-35
2021/12/18 09:27:24;;;;;;;;;;;;;;;7.22;100.00;104032.16;5094142;28;19970;-35
2021/12/18 09:29:50;;;;;;;;;;;;;;;7.23;100.00;104033.88;5094407;28;19912;-35
2021/12/18 09:32:15;;;;;;;;;;;;;;;7.23;100.00;104038.41;5094314;28;19991;-35
2021/12/18 09:34:40;;;;;;;;;;;;;;;7.16;100.00;104021.06;5094048;28;19919;-35
2021/12/18 09:37:07;;;;;;;;;;;;;;;7.22;100.00;104026.78;5094295;28;19912;-35
2021/12/18 09:39:32;;;;;;;;;;;;;;;7.21;100.00;104019.66;5094818;28;19919;-36
2021/12/18 09:41:57;;;;;;;;;;;;;;;7.25;100.00;104035.56;5094180;28;19912;-35
2021/12/18 09:44:23;;;;;;;;;;;;;;;7.27;100.00;104029.09;5093917;28;19912;-36
2021/12/18 09:46:48;;;;;;;;;;;;;;;7.29;100.00;104027.09;5093431;28;20002;-35
2021/12/18 09:49:15;;;;;;;;;;;;;;;7.31;100.00;104026.97;5094615;28;20312;-36
2021/12/18 09:51:40;;;;;;;;;;;;;;;7.30;100.00;104020.72;5094068;28;19918;-35
2021/12/18 09:54:05;;;;;;;;;;;;;;;7.29;100.00;104019.03;5093842;28;20010;-35
2021/12/18 09:56:30;;;;;;;;;;;;;;;7.30;100.00;104023.41;5093491;28;19920;-35
2021/12/18 09:58:56;;;;;;;;;;;;;;;7.31;100.00;104019.72;5094302;28;19912;-35
2021/12/18 10:01:21;;;;;;;;;;;;;;;7.35;100.00;104020.31;5093590;28;19999;-35
2021/12/18 10:03:49;;;;;;;;;;;;;;;7.35;100.00;104023.88;5094175;28;19959;-36
2021/12/18 10:06:34;;;;;;;;;;;;;;;7.37;100.00;104010.25;5093691;28;19916;-35
2021/12/18 10:09:00;;;;;;;;;;;;;;;7.34;100.00;104010.56;5093586;28;19912;-35
2021/12/18 10:11:25;;;;;;;;;;;;;;;7.27;100.00;104012.94;5093615;28;19912;-35
2021/12/18 10:13:52;;;;;;;;;;;;;;;7.20;100.00;104011.72;5093542;28;20391;-36
2021/12/18 10:16:18;;;;;;;;;;;;;;;7.20;100.00;104004.50;5093800;28;19912;-36
2021/12/18 10:18:43;;;;;;;;;;;;;;;7.22;100.00;104001.69;5094060;28;19916;-35
2021/12/18 10:21:15;;;;;;;;;;;;;;;7.23;100.00;104000.72;5093415;28;19912;-35
2021/12/18 10:23:44;;;;;;;;;;;;;;;7.07;100.00;104006.53;5093650;28;19912;-35
2021/12/18 10:26:28;;;;;;;;;;;;;;;7.00;100.00;104008.06;5093223;28;19912;-36
2021/12/18 10:28:53;;;;;;;;;;;;;;;7.00;100.00;103999.13;5093609;28;19912;-36
2021/12/18 10:31:36;;;;;;;;;;;;;;;7.03;100.00;103999.72;5093345;28;20237;-35
2021/12/18 10:34:15;;;;;;;;;;;;;;;7.10;100.00;104002.75;5093799;28;20344;-36
2021/12/18 10:36:40;;;;;;;;;;;;;;;7.13;100.00;104000.66;5093752;28;19919;-36
2021/12/18 10:39:05;;;;;;;;;;;;;;;7.08;100.00;103988.56;5093324;28;20272;-36
2021/12/18 10:41:32;;;;;;;;;;;;;;;7.09;100.00;103993.81;5093168;28;19912;-36
2021/12/18 10:44:00;;;;;;;;;;;;;;;7.11;100.00;103991.00;5093549;28;19947;-36
2021/12/18 10:46:26;;;;;;;;;;;;;;;7.15;100.00;103997.81;5093352;28;19912;-36
2021/12/18 10:49:01;;;;;;;;;;;;;;;7.20;100.00;104001.81;5093525;28;19916;-36
2021/12/18 10:51:29;;;;;;;;;;;;;;;7.25;100.00;103989.81;5092877;28;20364;-35
2021/12/18 10:54:00;;;;;;;;;;;;;;;7.29;100.00;103997.50;5074736;28;19978;-35
2021/12/18 10:56:32;;;;;;;;;;;;;;;7.28;100.00;103995.78;5093318;28;19962;-36
2021/12/18 10:58:57;;;;;;;;;;;;;;;7.31;100.00;103992.81;5096096;28;20359;-35
2021/12/18 11:01:23;;;;;;;;;;;;;;;7.25;100.00;103996.03;5097140;28;19931;-36
2021/12/18 11:03:49;;;;;;;;;;;;;;;7.21;100.00;103987.38;5097072;28;19916;-35
2021/12/18 11:06:21;;;;;;;;;;;;;;;7.10;100.00;103983.91;5097130;28;19916;-35
2021/12/18 11:08:52;;;;;;;;;;;;;;;7.04;100.00;103995.19;5097273;28;19912;-35
2021/12/18 11:14:01;;;;;;;;;;;;;;;7.05;100.00;103991.53;5097421;28;19912;-35
2021/12/18 11:16:27;;;;;;;;;;;;;;;7.05;100.00;103996.91;5097146;28;19912;-35
2021/12/18 11:18:54;;;;;;;;;;;;;;;7.02;100.00;103992.63;5097449;28;19912;-35
2021/12/18 11:21:19;;;;;;;;;;;;;;;7.00;100.00;103988.38;5096407;28;19918;-35
2021/12/18 11:23:50;;;;;;;;;;;;;;;7.00;100.00;103985.69;5096875;28;19947;-35
2021/12/18 11:26:18;;;;;;;;;;;;;;;6.95;100.00;103988.75;5096415;28;19919;-35
2021/12/18 11:28:45;;;;;;;;;;;;;;;6.93;100.00;103988.91;5096332;28;20421;-36
2021/12/18 11:31:11;;;;;;;;;;;;;;;6.96;100.00;103995.84;5088341;28;19917;-36
2021/12/18 11:33:37;;;;;;;;;;;;;;;6.92;100.00;103987.16;5076557;28;20326;-36
2021/12/18 11:36:04;;;;;;;;;;;;;;;6.90;100.00;103986.47;5076203;28;19955;-35
2021/12/18 11:38:31;;;;;;;;;;;;;;;6.91;100.00;103984.63;5076453;28;20028;-35
2021/12/18 11:40:57;;;;;;;;;;;;;;;6.89;100.00;103981.22;5075719;28;19912;-35
2021/12/18 11:43:39;;;;;;;;;;;;;;;6.81;100.00;103978.31;5076373;28;19958;-35
2021/12/18 11:46:22;;;;;;;;;;;;;;;6.78;100.00;103982.09;5076044;28;19916;-35
2021/12/18 11:48:51;;;;;;;;;;;;;;;6.79;100.00;103978.44;5075993;28;19920;-35
2021/12/18 11:51:16;;;;;;;;;;;;;;;6.82;100.00;103974.63;5075644;28;19912;-35
2021/12/18 11:53:42;;;;;;;;;;;;;;;6.84;100.00;103972.69;5075940;28;19924;-35
2021/12/18 11:56:08;;;;;;;;;;;;;;;6.83;100.00;103966.44;5075966;28;19935;-35
2021/12/18 11:58:40;;;;;;;;;;;;;;;6.86;100.00;103962.63;5076482;28;19912;-36
2021/12/18 12:01:13;;;;;;;;;;;;;;;6.83;100.00;103968.25;5076092;28;19912;-35
2021/12/18 12:03:40;;;;;;;;;;;;;;;6.84;100.00;103962.78;5076597;28;19916;-35
2021/12/18 12:06:24;;;;;;;;;;;;;;;6.80;100.00;103961.31;5075193;28;19920;-36
2021/12/18 12:09:09;;;;;;;;;;;;;;;6.81;100.00;103954.94;5075838;28;19931;-36
2021/12/18 12:11:48;;;;;;;;;;;;;;;6.82;100.00;103959.34;5075411;28;19961;-36
2021/12/18 12:14:13;;;;;;;;;;;;;;;6.85;100.00;103948.34;5076020;28;19919;-36
2021/12/18 12:16:44;;;;;;;;;;;;;;;6.85;100.00;103942.94;5075376;28;19912;-36
2021/12/18 12:19:12;;;;;;;;;;;;;;;6.88;100.00;103942.69;5075354;28;19912;-36
2021/12/18 12:21:47;;;;;;;;;;;;;;;6.93;100.00;103940.47;5075766;28;20004;-36
2021/12/18 12:24:19;;;;;;;;;;;;;;;6.91;100.00;103937.03;5075616;28;20020;-36
2021/12/18 12:26:45;;;;;;;;;;;;;;;6.89;100.00;103943.56;5075208;28;19912;-36
2021/12/18 12:29:13;;;;;;;;;;;;;;;6.91;100.00;103934.34;5075519;28;19912;-36
2021/12/18 12:31:51;;;;;;;;;;;;;;;6.95;100.00;103938.50;5075780;28;19978;-35
2021/12/18 12:34:31;;;;;;;;;;;;;;;6.92;100.00;103941.44;5075332;28;20391;-35
2021/12/18 12:37:17;;;;;;;;;;;;;;;6.91;100.00;103931.66;5074918;28;20290;-35
2021/12/18 12:39:56;;;;;;;;;;;;;;;6.88;100.00;103937.31;5075146;28;20010;-35
2021/12/18 12:42:22;;;;;;;;;;;;;;;6.85;100.00;103932.19;5074845;28;19951;-35
2021/12/18 12:44:55;;;;;;;;;;;;;;;6.85;100.00;103928.66;5074679;28;20348;-35
2021/12/18 12:47:24;;;;;;;;;;;;;;;6.85;100.00;103924.13;5074810;28;19963;-35
2021/12/18 12:49:56;;;;;;;;;;;;;;;6.80;100.00;103920.97;5074800;28;19919;-35
2021/12/18 12:52:23;;;;;;;;;;;;;;;6.81;100.00;103924.50;5074645;28;19919;-35
2021/12/18 12:54:54;;;;;;;;;;;;;;;6.83;100.00;103917.16;5074603;28;19956;-35
2021/12/18 12:57:22;;;;;;;;;;;;;;;6.77;100.00;103918.53;5074520;28;19912;-35
2021/12/18 12:59:51;;;;;;;;;;;;;;;6.74;100.00;103915.28;5074489;28;19912;-35
2021/12/18 13:02:16;;;;;;;;;;;;;;;6.70;100.00;103917.38;5074340;28;20365;-35
2021/12/18 13:04:42;;;;;;;;;;;;;;;6.68;100.00;103913.94;5074923;28;19920;-35
2021/12/18 13:07:07;;;;;;;;;;;;;;;6.71;100.00;103913.69;5074403;28;19912;-35
2021/12/18 13:09:33;;;;;;;;;;;;;;;6.74;100.00;103913.44;5074653;28;19913;-35
2021/12/18 13:11:59;;;;;;;;;;;;;;;6.78;100.00;103911.31;5074200;28;20300;-35
2021/12/18 13:14:24;;;;;;;;;;;;;;;6.70;100.00;103912.00;5074272;28;19912;-35
2021/12/18 13:16:50;;;;;;;;;;;;;;;6.69;100.00;103910.28;5074393;28;20371;-35
2021/12/18 13:19:15;;;;;;;;;;;;;;;6.68;100.00;103895.97;5074099;28;19944;-35